createdAt,value
2017-11-05T00:00:26.034Z,77.80
2017-11-05T00:02:54.907Z,78.50
2017-11-05T00:05:23.689Z,79.20
2017-11-05T00:07:52.477Z,79.10
2017-11-05T00:10:21.286Z,78.80
2017-11-05T00:12:50.064Z,78.40
2017-11-05T00:15:18.864Z,78.10
2017-11-05T00:17:47.701Z,78.30
2017-11-05T00:20:16.475Z,79.10
2017-11-05T00:22:45.266Z,79.20
2017-11-05T00:25:14.403Z,79.30
2017-11-05T00:27:43.172Z,79.10
2017-11-05T00:30:12.739Z,79.00
2017-11-05T00:32:41.600Z,79.00
2017-11-05T00:35:10.379Z,79.10
2017-11-05T00:37:39.884Z,78.90
2017-11-05T00:40:08.784Z,78.90
2017-11-05T00:42:37.534Z,79.10
2017-11-05T00:45:05.615Z,79.10
2017-11-05T00:47:44.408Z,78.70
2017-11-05T00:50:13.198Z,78.20
2017-11-05T00:52:42.095Z,78.10
2017-11-05T00:55:11.080Z,78.20
2017-11-05T00:57:40.141Z,78.20
2017-11-05T01:00:09.070Z,78.10
2017-11-05T01:02:37.903Z,78.10
2017-11-05T01:05:07.119Z,78.20
2017-11-05T01:07:35.930Z,78.10
2017-11-05T01:10:04.003Z,77.90
2017-11-05T01:12:32.786Z,77.70
2017-11-05T01:15:01.575Z,77.50
2017-11-05T01:17:30.360Z,78.40
2017-11-05T01:19:59.158Z,78.50
2017-11-05T01:22:27.969Z,78.60
2017-11-05T01:24:56.755Z,78.30
2017-11-05T01:27:25.588Z,78.90
2017-11-05T01:29:55.122Z,78.50
2017-11-05T01:32:23.885Z,78.50
2017-11-05T01:34:52.724Z,78.50
2017-11-05T01:37:21.530Z,78.20
2017-11-05T01:39:50.352Z,79.20
2017-11-05T01:42:19.995Z,78.70
2017-11-05T01:44:48.812Z,78.70
2017-11-05T01:47:17.592Z,78.40
2017-11-05T01:49:46.449Z,78.70
2017-11-05T01:52:16.042Z,80.60
2017-11-05T01:54:45.242Z,80.30
2017-11-05T01:57:14.807Z,79.30
2017-11-05T01:59:43.790Z,79.30
2017-11-05T02:02:12.566Z,78.70
2017-11-05T02:04:41.357Z,79.30
2017-11-05T02:07:09.527Z,78.70
2017-11-05T02:09:37.626Z,78.80
2017-11-05T02:12:06.373Z,78.80
2017-11-05T02:14:35.259Z,79.10
2017-11-05T02:17:04.045Z,79.50
2017-11-05T02:19:32.167Z,79.10
2017-11-05T02:22:00.336Z,78.40
2017-11-05T02:24:28.814Z,79.30
2017-11-05T02:26:57.295Z,79.40
2017-11-05T02:29:25.446Z,78.80
2017-11-05T02:31:53.862Z,78.40
2017-11-05T02:34:22.658Z,78.30
2017-11-05T02:36:51.090Z,78.70
2017-11-05T02:39:20.583Z,78.70
2017-11-05T02:41:50.121Z,78.20
2017-11-05T02:44:19.711Z,78.30
2017-11-05T02:46:47.840Z,78.30
2017-11-05T02:49:16.694Z,77.70
2017-11-05T02:51:44.833Z,77.50
2017-11-05T02:54:13.265Z,78.30
2017-11-05T02:56:41.386Z,78.00
2017-11-05T02:59:09.875Z,78.20
2017-11-05T03:01:38.718Z,78.20
2017-11-05T03:04:07.204Z,78.20
2017-11-05T03:06:35.762Z,78.60
2017-11-05T03:09:03.682Z,78.90
2017-11-05T03:11:32.512Z,78.10
2017-11-05T03:14:00.666Z,78.50
2017-11-05T03:16:29.137Z,78.30
2017-11-05T03:18:58.413Z,78.70
2017-11-05T03:21:28.169Z,78.70
2017-11-05T03:23:56.333Z,78.50
2017-11-05T03:26:25.037Z,78.50
2017-11-05T03:28:53.888Z,78.70
2017-11-05T03:31:21.963Z,78.40
2017-11-05T03:33:52.138Z,78.60
2017-11-05T03:36:20.578Z,78.50
2017-11-05T03:38:49.805Z,77.50
2017-11-05T03:41:18.280Z,77.50
2017-11-05T03:43:46.323Z,77.70
2017-11-05T03:46:14.478Z,77.70
2017-11-05T03:48:42.577Z,77.80
2017-11-05T03:51:11.474Z,79.10
2017-11-05T03:53:40.498Z,78.90
2017-11-05T03:56:08.606Z,78.90
2017-11-05T03:58:37.074Z,78.70
2017-11-05T04:01:05.157Z,78.90
2017-11-05T04:03:33.632Z,78.50
2017-11-05T04:06:01.746Z,78.30
2017-11-05T04:08:30.983Z,77.40
2017-11-05T04:10:59.091Z,77.40
2017-11-05T04:13:27.233Z,77.80
2017-11-05T04:15:55.662Z,77.80
2017-11-05T04:18:23.802Z,79.20
2017-11-05T04:20:51.920Z,78.80
2017-11-05T04:23:20.019Z,78.60
2017-11-05T04:25:48.326Z,78.80
2017-11-05T04:28:18.228Z,79.00
2017-11-05T04:30:47.079Z,78.80
2017-11-05T04:33:15.523Z,78.80
2017-11-05T04:35:43.460Z,78.10
2017-11-05T04:38:11.712Z,78.40
2017-11-05T04:40:39.800Z,78.10
2017-11-05T04:43:08.258Z,78.60
2017-11-05T04:45:36.338Z,78.60
2017-11-05T04:48:05.195Z,78.50
2017-11-05T04:50:33.386Z,78.40
2017-11-05T04:53:01.862Z,77.40
2017-11-05T04:55:30.728Z,78.00
2017-11-05T04:57:59.006Z,77.80
2017-11-05T05:00:27.859Z,78.00
2017-11-05T05:02:55.962Z,78.00
2017-11-05T05:05:25.130Z,78.00
2017-11-05T05:07:53.224Z,78.00
2017-11-05T05:10:22.579Z,78.50
2017-11-05T05:12:51.543Z,78.80
2017-11-05T05:15:19.660Z,78.80
2017-11-05T05:17:48.546Z,78.80
2017-11-05T05:20:16.660Z,78.90
2017-11-05T05:22:44.761Z,79.00
2017-11-05T05:25:13.713Z,79.00
2017-11-05T05:27:41.892Z,78.20
2017-11-05T05:30:09.987Z,78.40
2017-11-05T05:32:39.222Z,79.20
2017-11-05T05:35:07.386Z,79.90
2017-11-05T05:37:37.295Z,81.80
2017-11-05T05:40:05.362Z,80.80
2017-11-05T05:42:34.430Z,80.50
2017-11-05T05:45:03.582Z,80.00
2017-11-05T05:47:32.044Z,79.80
2017-11-05T05:50:00.132Z,79.10
2017-11-05T05:52:28.211Z,79.00
2017-11-05T05:54:57.312Z,78.90
2017-11-05T05:57:26.233Z,79.30
2017-11-05T05:59:54.322Z,79.30
2017-11-05T06:02:22.479Z,79.10
2017-11-05T06:04:50.940Z,78.80
2017-11-05T06:07:19.374Z,78.70
2017-11-05T06:09:47.552Z,78.70
2017-11-05T06:12:16.532Z,79.00
2017-11-05T06:14:45.243Z,79.80
2017-11-05T06:17:13.328Z,79.90
2017-11-05T06:19:41.478Z,79.80
2017-11-05T06:22:09.674Z,79.50
2017-11-05T06:24:38.134Z,79.30
2017-11-05T06:27:06.274Z,79.00
2017-11-05T06:29:34.392Z,78.90
2017-11-05T06:32:02.657Z,78.90
2017-11-05T06:34:35.125Z,79.30
2017-11-05T06:39:41.592Z,80.20
2017-11-05T06:42:10.885Z,80.50
2017-11-05T06:44:39.572Z,80.50
2017-11-05T06:47:07.751Z,80.70
2017-11-05T06:49:35.923Z,80.40
2017-11-05T06:52:05.322Z,80.40
2017-11-05T06:54:36.642Z,79.80
2017-11-05T07:10:10.167Z,76.50
2017-11-05T07:12:38.270Z,76.40
2017-11-05T07:15:06.397Z,74.90
2017-11-05T07:17:34.549Z,75.50
2017-11-05T07:20:12.194Z,72.20
2017-11-05T07:22:41.003Z,70.60
2017-11-05T07:25:09.102Z,70.00
2017-11-05T07:27:37.404Z,70.90
2017-11-05T07:30:06.909Z,71.00
2017-11-05T07:32:44.261Z,71.30
2017-11-05T07:35:13.194Z,72.40
2017-11-05T07:37:42.702Z,73.30
2017-11-05T07:40:10.879Z,73.70
2017-11-05T07:42:39.680Z,74.10
2017-11-05T07:45:07.772Z,74.10
2017-11-05T07:47:35.547Z,74.70
2017-11-05T07:50:37.235Z,74.60
2017-11-05T07:53:09.631Z,71.80
2017-11-05T07:55:38.528Z,69.50
2017-11-05T07:58:06.366Z,68.70
2017-11-05T08:00:34.923Z,67.60
2017-11-05T08:03:05.717Z,67.60
2017-11-05T08:05:34.270Z,66.90
2017-11-05T08:08:02.159Z,67.60
2017-11-05T08:10:30.012Z,67.80
2017-11-05T08:13:00.317Z,68.40
2017-11-05T08:15:29.323Z,69.00
2017-11-05T08:20:33.939Z,69.10
2017-11-05T08:23:03.734Z,69.70
2017-11-05T08:25:32.910Z,68.40
2017-11-05T08:28:07.734Z,67.50
2017-11-05T08:30:39.611Z,67.50
2017-11-05T08:33:10.065Z,65.50
2017-11-05T08:35:38.748Z,65.70
2017-11-05T08:38:07.357Z,65.60
2017-11-05T08:40:35.546Z,65.60
2017-11-05T08:43:04.168Z,64.60
2017-11-05T08:51:03.651Z,66.30
2017-11-05T08:53:31.566Z,60.20
2017-11-05T08:56:01.921Z,48.90
2017-11-05T08:58:30.530Z,48.70
2017-11-05T09:00:59.276Z,39.90
2017-11-05T09:03:27.110Z,39.80
2017-11-05T09:05:56.509Z,38.10
2017-11-05T09:08:25.819Z,33.60
2017-11-05T09:10:54.294Z,33.40
2017-11-05T09:13:22.454Z,33.30
2017-11-05T09:15:51.611Z,31.60
2017-11-05T09:18:20.216Z,30.30
2017-11-05T09:20:56.902Z,29.20
2017-11-05T09:23:26.643Z,28.40
2017-11-05T09:25:55.219Z,29.70
2017-11-05T09:28:23.675Z,29.70
2017-11-05T09:30:52.178Z,29.60
2017-11-05T09:33:20.660Z,28.50
2017-11-05T09:35:49.151Z,28.60
2017-11-05T09:38:17.656Z,27.60
2017-11-05T09:40:46.155Z,28.20
2017-11-05T09:43:14.626Z,27.50
2017-11-05T09:45:42.928Z,27.10
2017-11-05T09:48:11.399Z,27.10
2017-11-05T09:50:39.880Z,28.10
2017-11-05T09:53:08.436Z,26.90
2017-11-05T09:55:36.899Z,27.50
2017-11-05T09:58:05.451Z,26.70
2017-11-05T10:00:34.008Z,26.40
2017-11-05T10:03:02.514Z,26.50
2017-11-05T10:08:09.207Z,25.70
2017-11-05T10:10:38.000Z,26.90
2017-11-05T10:13:16.745Z,27.20
2017-11-05T10:15:46.147Z,26.00
2017-11-05T10:18:14.645Z,27.50
2017-11-05T10:30:31.398Z,27.00
2017-11-05T10:33:01.158Z,26.90
2017-11-05T10:35:31.080Z,27.60
2017-11-05T10:37:59.816Z,28.20
2017-11-05T10:40:29.418Z,28.80
2017-11-05T10:42:57.815Z,28.80
2017-11-05T10:45:26.616Z,31.20
2017-11-05T10:47:55.940Z,33.90
2017-11-05T10:50:24.527Z,33.80
2017-11-05T10:52:53.139Z,35.70
2017-11-05T10:55:21.702Z,39.50
2017-11-05T10:57:50.306Z,38.60
2017-11-05T11:00:21.124Z,39.70
2017-11-05T11:02:49.452Z,39.30
2017-11-05T11:05:18.078Z,39.10
2017-11-05T11:07:46.641Z,40.60
2017-11-05T11:10:15.224Z,40.50
2017-11-05T11:12:44.066Z,40.20
2017-11-05T11:15:12.642Z,38.00
2017-11-05T11:17:41.213Z,37.70
2017-11-05T11:20:09.992Z,36.40
2017-11-05T11:22:38.182Z,36.30
2017-11-05T11:25:06.800Z,36.00
2017-11-05T11:27:35.291Z,38.20
2017-11-05T11:30:03.981Z,37.70
2017-11-05T11:32:32.734Z,37.00
2017-11-05T11:35:01.310Z,36.10
2017-11-05T11:37:30.178Z,35.30
2017-11-05T11:39:58.806Z,34.10
2017-11-05T11:45:00.954Z,33.40
2017-11-05T11:47:30.463Z,33.40
2017-11-05T11:49:59.071Z,33.70
2017-11-05T11:52:28.694Z,35.70
2017-11-05T11:54:57.851Z,36.30
2017-11-05T11:57:26.880Z,36.30
2017-11-05T11:59:55.618Z,38.90
2017-11-05T12:02:23.948Z,40.30
2017-11-05T12:04:52.492Z,42.10
2017-11-05T12:07:21.863Z,41.40
2017-11-05T12:09:50.422Z,40.80
2017-11-05T12:12:19.058Z,39.90
2017-11-05T12:14:48.332Z,41.50
2017-11-05T12:17:16.851Z,40.10
2017-11-05T12:19:47.969Z,40.80
2017-11-05T12:22:16.562Z,41.20
2017-11-05T12:24:45.287Z,39.50
2017-11-05T12:27:13.760Z,39.10
2017-11-05T12:29:43.760Z,35.10
2017-11-05T12:32:13.014Z,35.00
2017-11-05T12:34:41.916Z,33.20
2017-11-05T12:37:11.264Z,32.90
2017-11-05T12:39:45.275Z,33.00
2017-11-05T12:42:16.252Z,31.10
2017-11-05T12:44:45.291Z,31.20
2017-11-05T12:47:14.451Z,30.90
2017-11-05T12:49:44.045Z,30.50
2017-11-05T12:52:13.279Z,30.50
2017-11-05T12:54:50.627Z,31.40
2017-11-05T12:57:20.321Z,31.40
2017-11-05T12:59:51.420Z,31.10
2017-11-05T13:02:23.973Z,30.30
2017-11-05T13:04:54.401Z,30.30
2017-11-05T13:07:23.880Z,30.60
2017-11-05T13:09:56.223Z,31.90
2017-11-05T13:12:30.447Z,32.70
2017-11-05T13:15:01.551Z,33.50
2017-11-05T13:17:33.826Z,34.20
2017-11-05T13:20:03.683Z,36.00
2017-11-05T13:22:32.162Z,38.00
2017-11-05T13:25:01.813Z,38.00
2017-11-05T13:27:30.237Z,40.00
2017-11-05T13:30:02.493Z,41.70
2017-11-05T13:32:35.343Z,42.40
2017-11-05T13:35:05.542Z,43.70
2017-11-05T13:37:34.752Z,43.20
2017-11-05T13:40:03.632Z,44.60
2017-11-05T13:42:32.246Z,44.60
2017-11-05T13:45:01.240Z,45.60
2017-11-05T13:47:31.592Z,47.70
2017-11-05T13:50:00.567Z,47.20
2017-11-05T13:52:29.185Z,47.10
2017-11-05T13:54:58.543Z,47.10
2017-11-05T13:57:26.819Z,48.00
2017-11-05T13:59:55.848Z,48.20
2017-11-05T14:02:24.351Z,48.60
2017-11-05T14:04:53.126Z,48.80
2017-11-05T14:07:22.063Z,49.80
2017-11-05T14:09:50.763Z,49.40
2017-11-05T14:12:19.997Z,49.90
2017-11-05T14:14:49.233Z,49.90
2017-11-05T14:17:19.523Z,50.80
2017-11-05T14:19:48.049Z,50.90
2017-11-05T14:22:16.635Z,51.40
2017-11-05T14:24:45.419Z,51.70
2017-11-05T14:27:13.906Z,52.20
2017-11-05T14:29:43.187Z,53.40
2017-11-05T14:32:11.790Z,53.30
2017-11-05T14:34:40.407Z,53.90
2017-11-05T14:37:08.956Z,55.60
2017-11-05T14:39:37.502Z,56.10
2017-11-05T14:42:06.012Z,56.80
2017-11-05T14:44:34.714Z,58.10
2017-11-05T14:47:04.414Z,58.00
2017-11-05T14:49:32.599Z,57.90
2017-11-05T14:52:00.779Z,57.90
2017-11-05T14:54:30.147Z,59.70
2017-11-05T14:56:58.966Z,59.70
2017-11-05T14:59:28.270Z,60.10
2017-11-05T15:01:56.841Z,61.50
2017-11-05T15:04:25.494Z,62.60
2017-11-05T15:06:53.992Z,62.40
2017-11-05T15:09:22.515Z,63.10
2017-11-05T15:11:52.022Z,63.10
2017-11-05T15:14:22.223Z,64.30
2017-11-05T15:16:50.777Z,64.20
2017-11-05T15:19:19.261Z,65.40
2017-11-05T15:21:47.438Z,65.50
2017-11-05T15:24:15.918Z,66.60
2017-11-05T15:26:44.420Z,66.60
2017-11-05T15:29:12.880Z,66.30
2017-11-05T15:31:41.360Z,67.10
2017-11-05T15:34:09.651Z,68.20
2017-11-05T15:36:37.934Z,68.30
2017-11-05T15:39:06.268Z,68.20
2017-11-05T15:41:34.743Z,68.70
2017-11-05T15:44:03.985Z,68.20
2017-11-05T15:46:32.528Z,68.20
2017-11-05T15:49:01.139Z,68.60
2017-11-05T15:51:28.809Z,68.60
2017-11-05T15:53:57.404Z,69.10
2017-11-05T15:56:25.551Z,69.30
2017-11-05T15:58:54.044Z,70.00
2017-11-05T16:01:22.533Z,71.10
2017-11-05T16:03:51.040Z,71.80
2017-11-05T16:06:21.549Z,71.10
2017-11-05T16:08:50.051Z,71.30
2017-11-05T16:11:18.536Z,72.20
2017-11-05T16:13:47.243Z,72.80
2017-11-05T16:16:15.831Z,72.60
2017-11-05T16:18:44.327Z,72.50
2017-11-05T16:21:13.591Z,72.40
2017-11-05T16:23:42.138Z,72.30
2017-11-05T16:26:10.638Z,73.30
2017-11-05T16:28:39.115Z,73.10
2017-11-05T16:31:07.643Z,72.80
2017-11-05T16:33:36.144Z,73.10
2017-11-05T16:36:05.383Z,74.20
2017-11-05T16:38:34.259Z,74.00
2017-11-05T16:41:02.799Z,74.00
2017-11-05T16:43:31.350Z,73.70
2017-11-05T16:45:59.884Z,74.70
2017-11-05T16:48:28.637Z,75.30
2017-11-05T16:50:57.112Z,75.40
2017-11-05T16:53:25.626Z,76.10
2017-11-05T16:55:54.460Z,76.60
2017-11-05T16:58:24.010Z,76.50
2017-11-05T17:00:52.518Z,76.40
2017-11-05T17:03:21.040Z,76.20
2017-11-05T17:05:49.176Z,75.50
2017-11-05T17:08:18.912Z,75.80
2017-11-05T17:10:48.156Z,76.20
2017-11-05T17:13:16.932Z,76.20
2017-11-05T17:15:45.385Z,76.00
2017-11-05T17:18:14.364Z,76.00
2017-11-05T17:20:43.097Z,76.30
2017-11-05T17:23:11.873Z,76.20
2017-11-05T17:25:40.753Z,76.60
2017-11-05T17:28:10.010Z,76.50
2017-11-05T17:30:38.470Z,76.50
2017-11-05T17:33:07.294Z,75.20
2017-11-05T17:35:35.650Z,76.50
2017-11-05T17:38:04.372Z,76.60
2017-11-05T17:40:33.098Z,76.50
2017-11-05T17:43:01.875Z,76.60
2017-11-05T17:45:30.631Z,77.50
2017-11-05T17:48:05.443Z,77.20
2017-11-05T17:50:34.254Z,77.20
2017-11-05T17:53:03.054Z,77.50
2017-11-05T17:58:08.208Z,78.00
2017-11-05T18:00:37.192Z,77.30
2017-11-05T18:03:06.901Z,77.20
2017-11-05T18:05:38.670Z,77.50
2017-11-05T18:08:10.737Z,77.10
2017-11-05T18:10:40.167Z,78.20
2017-11-05T18:18:34.246Z,79.60
2017-11-05T18:21:03.094Z,78.60
2017-11-05T18:23:31.835Z,78.70
2017-11-05T18:26:00.651Z,78.90
2017-11-05T18:28:29.707Z,78.50
2017-11-05T18:30:59.493Z,79.70
2017-11-05T18:33:29.446Z,78.90
2017-11-05T18:35:58.926Z,79.70
2017-11-05T18:38:28.630Z,79.80
2017-11-05T18:40:58.994Z,79.30
2017-11-05T18:43:28.588Z,79.50
2017-11-05T18:45:58.165Z,79.50
2017-11-05T18:48:27.800Z,78.80
2017-11-05T18:50:57.355Z,78.10
2017-11-05T18:53:26.728Z,77.90
2017-11-05T18:55:56.187Z,77.80
2017-11-05T18:58:25.546Z,79.10
2017-11-05T19:00:54.310Z,79.40
2017-11-05T19:03:23.820Z,79.00
2017-11-05T19:05:53.775Z,79.00
2017-11-05T19:08:23.161Z,78.90
2017-11-05T19:10:52.542Z,79.30
2017-11-05T19:13:21.951Z,78.90
2017-11-05T19:15:51.294Z,79.80
2017-11-05T19:18:21.372Z,79.40
2017-11-05T19:20:51.177Z,79.40
2017-11-05T19:23:20.891Z,78.90
2017-11-05T19:25:50.321Z,78.80
2017-11-05T19:28:20.720Z,79.10
2017-11-05T19:30:50.147Z,79.10
2017-11-05T19:33:19.306Z,79.00
2017-11-05T19:35:48.102Z,78.90
2017-11-05T19:38:16.847Z,78.50
2017-11-05T19:40:45.639Z,78.10
2017-11-05T19:43:14.477Z,78.30
2017-11-05T19:45:43.001Z,78.20
2017-11-05T19:48:11.468Z,78.60
2017-11-05T19:50:40.999Z,77.90
2017-11-05T19:53:09.455Z,77.80
2017-11-05T19:55:37.957Z,78.00
2017-11-05T19:58:06.811Z,77.50
2017-11-05T20:00:35.314Z,77.10
2017-11-05T20:03:04.042Z,77.40
2017-11-05T20:05:32.550Z,77.70
2017-11-05T20:08:01.074Z,75.80
2017-11-05T20:10:29.558Z,76.00
2017-11-05T20:12:58.071Z,75.50
2017-11-05T20:15:26.562Z,76.80
2017-11-05T20:17:55.099Z,77.00
2017-11-05T20:20:23.256Z,76.10
2017-11-05T20:22:52.026Z,75.70
2017-11-05T20:25:20.540Z,75.00
2017-11-05T20:27:49.373Z,74.70
2017-11-05T20:30:17.846Z,73.80
2017-11-05T20:32:46.306Z,74.90
2017-11-05T20:35:14.811Z,73.10
2017-11-05T20:37:43.287Z,72.90
2017-11-05T20:40:11.772Z,74.30
2017-11-05T20:42:40.294Z,74.30
2017-11-05T20:45:08.790Z,73.90
2017-11-05T20:47:37.294Z,74.00
2017-11-05T20:50:05.864Z,73.90
2017-11-05T20:52:34.397Z,73.70
2017-11-05T20:55:02.912Z,73.90
2017-11-05T20:57:32.161Z,74.60
2017-11-05T21:00:00.664Z,74.60
2017-11-05T21:02:28.966Z,74.90
2017-11-05T21:04:57.442Z,74.80
2017-11-05T21:07:26.141Z,74.30
2017-11-05T21:09:54.664Z,74.30
2017-11-05T21:12:23.171Z,74.00
2017-11-05T21:14:51.661Z,74.50
2017-11-05T21:17:20.173Z,74.70
2017-11-05T21:19:49.529Z,75.30
2017-11-05T21:22:18.011Z,75.30
2017-11-05T21:24:46.517Z,75.30
2017-11-05T21:27:15.040Z,75.20
2017-11-05T21:29:43.759Z,75.70
2017-11-05T21:32:12.357Z,75.40
2017-11-05T21:34:41.190Z,75.40
2017-11-05T21:37:10.502Z,75.40
2017-11-05T21:39:39.082Z,75.40
2017-11-05T21:42:08.333Z,75.70
2017-11-05T21:44:36.826Z,76.80
2017-11-05T21:47:05.322Z,77.10
2017-11-05T21:49:33.844Z,77.00
2017-11-05T21:52:02.363Z,76.70
2017-11-05T21:54:30.878Z,76.70
2017-11-05T21:56:59.667Z,76.70
2017-11-05T21:59:28.449Z,77.00
2017-11-05T22:01:56.875Z,77.10
2017-11-05T22:04:25.406Z,77.30
2017-11-05T22:06:53.988Z,77.10
2017-11-05T22:09:22.616Z,77.20
2017-11-05T22:11:51.150Z,77.00
2017-11-05T22:14:19.643Z,77.40
2017-11-05T22:16:48.343Z,77.50
2017-11-05T22:19:17.087Z,77.60
2017-11-05T22:21:45.726Z,77.80
2017-11-05T22:24:14.991Z,77.50
2017-11-05T22:26:43.488Z,77.40
2017-11-05T22:29:12.067Z,77.60
2017-11-05T22:31:40.568Z,77.50
2017-11-05T22:34:09.093Z,77.60
2017-11-05T22:36:37.635Z,77.20
2017-11-05T22:39:06.142Z,77.60
2017-11-05T22:41:34.638Z,77.20
2017-11-05T22:44:03.159Z,77.40
2017-11-05T22:46:31.647Z,77.60
2017-11-05T22:49:00.199Z,77.00
2017-11-05T22:51:29.011Z,76.40
2017-11-05T22:53:57.671Z,76.30
2017-11-05T22:56:26.390Z,76.80
2017-11-05T22:58:55.538Z,77.00
2017-11-05T23:01:23.795Z,77.20
2017-11-05T23:03:56.682Z,77.30
2017-11-05T23:06:26.370Z,77.50
2017-11-05T23:08:56.438Z,77.40
2017-11-05T23:11:30.757Z,77.00
2017-11-05T23:16:39.797Z,78.50
2017-11-05T23:19:13.193Z,78.50
2017-11-05T23:21:44.485Z,79.10
2017-11-05T23:24:15.579Z,79.50
2017-11-05T23:26:47.386Z,79.60
2017-11-05T23:29:16.332Z,79.60
2017-11-05T23:31:44.729Z,80.10
2017-11-05T23:34:14.662Z,79.80
2017-11-05T23:36:46.103Z,78.90
2017-11-05T23:39:14.851Z,78.90
2017-11-05T23:41:45.903Z,78.90
2017-11-05T23:44:15.000Z,78.60
2017-11-05T23:46:44.195Z,79.20
2017-11-05T23:49:14.854Z,79.00
2017-11-05T23:51:44.117Z,79.90
2017-11-05T23:54:16.208Z,80.10
2017-11-05T23:56:51.919Z,80.30
2017-11-05T23:59:21.602Z,80.30
